Time;durP1;ratioP1;P1;durP2;ratioP2;P2;SDS_P1;SDS_P2;PMS_P1;PMS_P2;Temp;Humidity;BMP_temperature;BMP_pressure;BME280_temperature;BME280_humidity;BME280_pressure;Samples;Min_cycle;Max_cycle;Signal;HPM_P1;HPM_P2
2024/01/18 00:00:46;;;;;;;18.97;12.47;;;-0.30;99.90;;;;;;5033283;28;20180;-60
2024/01/18 00:03:12;;;;;;;19.47;12.60;;;-0.40;99.90;;;;;;5023603;28;20430;-58
2024/01/18 00:05:37;;;;;;;20.73;12.97;;;-0.40;99.90;;;;;;5033159;28;20453;-59
2024/01/18 00:08:03;;;;;;;16.27;13.40;;;-0.40;99.90;;;;;;5030646;28;20175;-61
2024/01/18 00:10:29;;;;;;;20.30;15.10;;;-0.40;99.90;;;;;;5033569;28;20179;-61
2024/01/18 00:12:55;;;;;;;19.17;14.27;;;-0.40;99.90;;;;;;5033155;28;20215;-59
2024/01/18 00:15:21;;;;;;;17.17;12.10;;;-0.50;99.90;;;;;;5032371;28;20419;-56
2024/01/18 00:17:47;;;;;;;17.30;12.23;;;-0.50;99.90;;;;;;5033269;28;20521;-60
2024/01/18 00:20:14;;;;;;;18.27;12.33;;;-0.60;99.90;;;;;;5040420;28;20531;-60
2024/01/18 00:22:42;;;;;;;18.30;13.00;;;-0.60;99.90;;;;;;5028971;28;20463;-59
2024/01/18 00:25:09;;;;;;;15.97;10.70;;;-0.60;99.90;;;;;;5026867;28;20474;-59
2024/01/18 00:27:34;;;;;;;17.47;14.03;;;-0.60;99.90;;;;;;5017837;28;20786;-60
2024/01/18 00:30:00;;;;;;;20.07;13.13;;;-0.60;99.90;;;;;;5026631;28;20424;-60
2024/01/18 00:32:26;;;;;;;19.70;13.47;;;-0.60;99.90;;;;;;5004264;28;20565;-59
2024/01/18 00:34:51;;;;;;;18.17;13.13;;;-0.50;99.90;;;;;;5023188;28;20210;-58
2024/01/18 00:37:17;;;;;;;22.10;12.90;;;-0.60;99.90;;;;;;5029501;28;20174;-60
2024/01/18 00:39:43;;;;;;;22.23;13.00;;;-0.50;99.90;;;;;;5006641;28;20184;-57
2024/01/18 00:42:09;;;;;;;24.20;14.80;;;-0.60;99.90;;;;;;5030781;28;20419;-60
2024/01/18 00:44:35;;;;;;;20.87;12.57;;;-0.50;99.90;;;;;;5032423;28;20453;-59
2024/01/18 00:47:01;;;;;;;17.70;13.20;;;-0.60;99.90;;;;;;5031463;28;20410;-59
2024/01/18 00:49:26;;;;;;;21.03;12.37;;;-0.50;99.90;;;;;;5032810;28;20172;-55
2024/01/18 00:51:52;;;;;;;17.63;14.33;;;-0.50;99.90;;;;;;5029013;28;20172;-53
2024/01/18 00:54:18;;;;;;;23.03;14.40;;;-0.50;99.90;;;;;;5023047;28;20217;-61
2024/01/18 00:56:43;;;;;;;23.70;13.93;;;-0.50;99.90;;;;;;5029793;28;20440;-60
2024/01/18 00:59:09;;;;;;;26.20;14.30;;;-0.50;99.90;;;;;;5029910;28;20163;-60
2024/01/18 01:01:34;;;;;;;22.80;13.43;;;-0.50;99.90;;;;;;5031701;28;20183;-62
2024/01/18 01:04:00;;;;;;;15.97;11.93;;;-0.50;99.90;;;;;;5030905;28;20195;-59
2024/01/18 01:06:26;;;;;;;17.40;13.37;;;-0.50;99.90;;;;;;5030963;28;20219;-57
2024/01/18 01:08:51;;;;;;;19.77;13.70;;;-0.50;99.90;;;;;;5031835;28;20171;-59
2024/01/18 01:11:17;;;;;;;23.37;13.23;;;-0.60;99.90;;;;;;5029765;28;20174;-60
2024/01/18 01:13:44;;;;;;;24.53;14.43;;;-0.60;99.90;;;;;;5032153;28;20199;-60
2024/01/18 01:16:10;;;;;;;21.17;13.60;;;-0.60;99.90;;;;;;5013505;28;20516;-59
2024/01/18 01:18:36;;;;;;;20.27;12.73;;;-0.60;99.90;;;;;;5014027;28;20509;-60
2024/01/18 01:21:02;;;;;;;15.57;11.87;;;-0.60;99.90;;;;;;5030932;28;20465;-60
2024/01/18 01:23:28;;;;;;;19.27;14.93;;;-0.50;99.90;;;;;;5033233;28;20199;-61
2024/01/18 01:25:53;;;;;;;15.83;13.40;;;-0.50;99.90;;;;;;5031086;28;20832;-59
2024/01/18 01:28:19;;;;;;;21.93;12.50;;;-0.50;99.90;;;;;;5031062;28;20167;-61
2024/01/18 01:30:44;;;;;;;24.83;13.50;;;-0.50;99.90;;;;;;5031369;28;20202;-60
2024/01/18 01:33:10;;;;;;;22.63;13.70;;;-0.60;99.90;;;;;;5031245;28;20662;-60
2024/01/18 01:35:35;;;;;;;19.57;11.93;;;-0.60;99.90;;;;;;5031159;28;20175;-59
2024/01/18 01:38:01;;;;;;;20.50;11.90;;;-0.60;99.90;;;;;;5031393;28;20601;-60
2024/01/18 01:40:26;;;;;;;23.43;13.97;;;-0.60;99.90;;;;;;5031248;28;20247;-60
2024/01/18 01:42:52;;;;;;;17.53;11.53;;;-0.60;99.90;;;;;;5031175;28;20314;-60
2024/01/18 01:45:18;;;;;;;25.60;13.77;;;-0.60;99.90;;;;;;5030876;28;20227;-61
2024/01/18 01:47:43;;;;;;;18.90;13.50;;;-0.60;99.90;;;;;;5031193;28;20168;-61
2024/01/18 01:50:10;;;;;;;20.17;13.07;;;-0.60;99.90;;;;;;5030815;28;20256;-59
2024/01/18 01:52:36;;;;;;;15.87;12.50;;;-0.60;99.90;;;;;;5031351;28;20187;-60
2024/01/18 01:55:02;;;;;;;19.47;13.73;;;-0.60;99.90;;;;;;5031062;28;20516;-62
2024/01/18 01:57:29;;;;;;;20.80;12.90;;;-0.60;99.90;;;;;;5023214;28;20417;-61
2024/01/18 01:59:55;;;;;;;17.87;12.40;;;-0.60;99.90;;;;;;5031775;28;20398;-59
2024/01/18 02:02:23;;;;;;;17.20;11.40;;;-0.60;99.90;;;;;;5031007;28;20430;-61
2024/01/18 02:04:49;;;;;;;21.50;14.00;;;-0.60;99.90;;;;;;5030902;28;20883;-62
2024/01/18 02:07:15;;;;;;;17.90;12.37;;;-0.60;99.90;;;;;;5033708;28;20406;-61
2024/01/18 02:09:41;;;;;;;22.77;12.77;;;-0.60;99.90;;;;;;5034942;28;20947;-60
2024/01/18 02:12:09;;;;;;;18.90;13.80;;;-0.50;99.90;;;;;;5034926;28;20614;-61
2024/01/18 02:14:36;;;;;;;16.00;11.70;;;-0.50;99.90;;;;;;5039120;28;20409;-59
2024/01/18 02:17:03;;;;;;;21.97;14.00;;;-0.60;99.90;;;;;;5035000;28;20410;-60
2024/01/18 02:19:30;;;;;;;18.80;14.17;;;-0.60;99.90;;;;;;5028407;28;21138;-61
2024/01/18 02:21:57;;;;;;;19.20;13.70;;;-0.70;99.90;;;;;;5034834;28;20415;-60
2024/01/18 02:24:35;;;;;;;18.17;11.97;;;-0.60;99.90;;;;;;5035091;28;20936;-60
2024/01/18 02:27:00;;;;;;;19.30;11.73;;;-0.50;99.90;;;;;;5035196;28;20476;-60
2024/01/18 02:29:26;;;;;;;22.87;13.23;;;-0.50;99.90;;;;;;5034645;28;20817;-59
2024/01/18 02:31:51;;;;;;;18.80;12.43;;;-0.50;99.90;;;;;;5035641;28;20176;-60
2024/01/18 02:34:18;;;;;;;19.33;12.87;;;-0.50;99.90;;;;;;5034486;28;20208;-59
2024/01/18 02:36:44;;;;;;;17.03;13.40;;;-0.50;99.90;;;;;;5033311;28;20230;-61
2024/01/18 02:39:11;;;;;;;16.10;12.57;;;-0.50;99.90;;;;;;5034171;28;20418;-60
2024/01/18 02:41:37;;;;;;;14.80;11.90;;;-0.50;99.90;;;;;;5033019;28;20433;-60
2024/01/18 02:44:03;;;;;;;22.50;13.93;;;-0.60;99.90;;;;;;5027583;28;20465;-61
2024/01/18 02:46:32;;;;;;;18.90;12.90;;;-0.60;99.90;;;;;;5022858;28;20492;-60
2024/01/18 02:48:58;;;;;;;22.70;13.53;;;-0.60;99.90;;;;;;5032479;28;20702;-61
2024/01/18 02:51:24;;;;;;;17.60;12.80;;;-0.60;99.90;;;;;;5034020;28;20552;-60
2024/01/18 02:53:49;;;;;;;15.63;12.40;;;-0.60;99.90;;;;;;5034224;28;20437;-60
2024/01/18 02:56:15;;;;;;;23.80;13.27;;;-0.60;99.90;;;;;;5033255;28;20187;-61
2024/01/18 02:58:40;;;;;;;19.00;12.50;;;-0.60;99.90;;;;;;5034753;28;20179;-60
2024/01/18 03:01:06;;;;;;;16.57;11.80;;;-0.70;99.90;;;;;;5028372;28;20658;-60
2024/01/18 03:03:35;;;;;;;19.30;13.67;;;-0.70;99.90;;;;;;5030416;28;20560;-60
2024/01/18 03:06:00;;;;;;;21.53;13.77;;;-0.70;99.90;;;;;;5036145;28;20228;-60
2024/01/18 03:08:26;;;;;;;22.00;13.97;;;-0.60;99.90;;;;;;5033517;28;20497;-58
2024/01/18 03:10:51;;;;;;;18.00;13.27;;;-0.70;99.90;;;;;;5034135;28;20179;-59
2024/01/18 03:13:17;;;;;;;20.27;13.17;;;-0.60;99.90;;;;;;5016106;28;20326;-60
2024/01/18 03:15:42;;;;;;;18.57;13.67;;;-0.70;99.90;;;;;;5034043;28;20207;-60
2024/01/18 03:18:08;;;;;;;17.90;12.53;;;-0.70;99.90;;;;;;5033639;28;20231;-59
2024/01/18 03:20:34;;;;;;;22.27;15.10;;;-0.70;99.90;;;;;;5028907;28;20188;-59
2024/01/18 03:23:00;;;;;;;20.70;14.27;;;-0.70;99.90;;;;;;5033244;28;20188;-60
2024/01/18 03:25:26;;;;;;;16.30;12.73;;;-0.70;99.90;;;;;;5033460;28;20524;-61
2024/01/18 03:27:51;;;;;;;17.30;12.60;;;-0.70;99.90;;;;;;5033643;28;20178;-59
2024/01/18 03:30:17;;;;;;;20.27;13.80;;;-0.70;99.90;;;;;;5030672;28;20411;-59
2024/01/18 03:32:43;;;;;;;19.50;12.93;;;-0.80;99.90;;;;;;5033473;28;20192;-62
2024/01/18 03:35:08;;;;;;;21.77;13.57;;;-0.80;99.90;;;;;;5033643;28;20639;-59
2024/01/18 03:37:34;;;;;;;18.60;13.87;;;-0.70;99.90;;;;;;5033117;28;20217;-60
2024/01/18 03:39:59;;;;;;;18.50;12.40;;;-0.80;99.90;;;;;;5033820;28;20286;-60
2024/01/18 03:42:25;;;;;;;22.17;13.00;;;-0.80;99.90;;;;;;5033310;28;20689;-60
2024/01/18 03:44:51;;;;;;;19.63;13.03;;;-0.80;99.90;;;;;;5033399;28;20766;-60
2024/01/18 03:47:16;;;;;;;17.80;12.00;;;-0.90;99.90;;;;;;5033322;28;20175;-60
2024/01/18 03:49:43;;;;;;;17.50;13.87;;;-0.80;99.90;;;;;;5033293;28;20306;-61
2024/01/18 03:52:09;;;;;;;18.70;12.87;;;-0.90;99.90;;;;;;5033731;28;20565;-59
2024/01/18 03:54:35;;;;;;;22.10;14.17;;;-0.90;99.90;;;;;;5036515;28;20920;-61
2024/01/18 03:57:01;;;;;;;16.20;11.83;;;-0.90;99.90;;;;;;5032861;28;20537;-58
2024/01/18 03:59:26;;;;;;;19.97;12.67;;;-0.90;99.90;;;;;;5033219;28;20171;-58
2024/01/18 04:01:52;;;;;;;26.17;13.40;;;-1.00;99.90;;;;;;5033154;28;20168;-60
2024/01/18 04:04:17;;;;;;;21.73;13.70;;;-1.00;99.90;;;;;;5033267;28;20598;-60
2024/01/18 04:06:43;;;;;;;24.33;14.67;;;-1.00;99.90;;;;;;5033124;28;20199;-61
2024/01/18 04:09:08;;;;;;;20.73;13.90;;;-1.00;99.90;;;;;;5033161;28;20168;-62
2024/01/18 04:11:34;;;;;;;26.03;14.43;;;-1.00;99.90;;;;;;5015312;28;20187;-60
2024/01/18 04:14:00;;;;;;;20.77;12.63;;;-1.00;99.90;;;;;;5032853;28;20207;-60
2024/01/18 04:16:26;;;;;;;22.67;14.07;;;-1.00;99.90;;;;;;5032920;28;20172;-60
2024/01/18 04:18:51;;;;;;;26.80;14.70;;;-1.00;99.90;;;;;;5033107;28;20160;-60
2024/01/18 04:21:17;;;;;;;17.77;11.97;;;-1.00;99.90;;;;;;5032673;28;20255;-61
2024/01/18 04:23:42;;;;;;;30.50;14.83;;;-1.00;99.90;;;;;;5032465;28;20199;-60
2024/01/18 04:26:08;;;;;;;16.70;12.23;;;-1.00;99.90;;;;;;5032681;28;20199;-60
2024/01/18 04:28:34;;;;;;;18.87;14.07;;;-1.00;99.90;;;;;;5032594;28;20738;-61
2024/01/18 04:30:59;;;;;;;20.83;14.87;;;-1.00;99.90;;;;;;5031911;28;20418;-60
2024/01/18 04:33:25;;;;;;;19.63;14.70;;;-1.00;99.90;;;;;;5032572;28;20233;-60
2024/01/18 04:35:51;;;;;;;24.10;14.93;;;-1.00;99.90;;;;;;5032801;28;20187;-61
2024/01/18 04:38:16;;;;;;;19.53;13.70;;;-1.00;99.90;;;;;;5032557;28;20171;-60
2024/01/18 04:40:43;;;;;;;24.33;14.43;;;-1.00;99.90;;;;;;5032313;28;20213;-61
2024/01/18 04:43:09;;;;;;;18.13;13.40;;;-1.10;99.90;;;;;;5032501;28;20434;-61
2024/01/18 04:45:35;;;;;;;22.90;14.10;;;-1.10;99.90;;;;;;5032644;28;20461;-60
2024/01/18 04:48:01;;;;;;;24.07;15.33;;;-1.10;99.90;;;;;;5032800;28;20460;-60
2024/01/18 04:50:26;;;;;;;19.70;14.70;;;-1.00;99.90;;;;;;5032815;28;20267;-60
2024/01/18 04:52:55;;;;;;;25.67;14.90;;;-1.10;99.90;;;;;;5032376;28;20565;-60
2024/01/18 04:55:21;;;;;;;25.37;16.70;;;-1.00;99.90;;;;;;5032399;28;20679;-60
2024/01/18 04:57:48;;;;;;;21.03;15.07;;;-1.00;99.90;;;;;;5032444;28;20426;-60
2024/01/18 05:00:14;;;;;;;24.40;15.37;;;-1.10;99.90;;;;;;5032186;28;20414;-60
2024/01/18 05:02:41;;;;;;;30.27;17.00;;;-1.00;99.90;;;;;;5024563;28;20484;-60
2024/01/18 05:05:08;;;;;;;20.03;15.57;;;-1.00;99.90;;;;;;5039386;28;20449;-60
2024/01/18 05:07:43;;;;;;;22.30;15.53;;;-1.00;99.90;;;;;;5031389;28;20426;-60
2024/01/18 05:10:10;;;;;;;19.67;15.20;;;-1.00;99.90;;;;;;5031899;28;20409;-59
2024/01/18 05:12:37;;;;;;;22.37;14.13;;;-1.10;99.90;;;;;;5031727;28;20442;-60
2024/01/18 05:15:03;;;;;;;21.27;15.70;;;-1.10;99.90;;;;;;5031953;28;20411;-60
2024/01/18 05:17:35;;;;;;;21.17;16.70;;;-1.20;99.90;;;;;;5030032;28;20479;-60
2024/01/18 05:20:03;;;;;;;25.03;16.00;;;-1.20;99.90;;;;;;5027800;28;20794;-60
2024/01/18 05:22:30;;;;;;;24.07;15.30;;;-1.20;99.90;;;;;;5031935;28;21022;-60
2024/01/18 05:24:56;;;;;;;18.03;13.80;;;-1.10;99.90;;;;;;5014077;28;20585;-60
2024/01/18 05:27:23;;;;;;;19.23;14.00;;;-1.10;99.90;;;;;;5031559;28;20975;-59
2024/01/18 05:29:48;;;;;;;24.13;16.33;;;-1.10;99.90;;;;;;5031647;28;20433;-60
2024/01/18 05:32:14;;;;;;;22.83;16.13;;;-1.10;99.90;;;;;;5031478;28;20504;-61
2024/01/18 05:34:40;;;;;;;22.53;14.67;;;-1.10;99.90;;;;;;5031689;28;20171;-61
2024/01/18 05:37:06;;;;;;;24.20;15.53;;;-1.10;99.90;;;;;;5031805;28;20500;-60
2024/01/18 05:39:31;;;;;;;25.57;15.23;;;-1.10;99.90;;;;;;5031402;28;20411;-60
2024/01/18 05:41:57;;;;;;;27.70;14.43;;;-1.10;99.90;;;;;;5031074;28;20237;-59
2024/01/18 05:44:23;;;;;;;24.13;16.00;;;-1.10;99.90;;;;;;5031448;28;20677;-60
2024/01/18 05:46:48;;;;;;;22.83;15.20;;;-1.20;99.90;;;;;;5031488;28;20202;-60
2024/01/18 05:49:14;;;;;;;27.50;16.93;;;-1.20;99.90;;;;;;5031276;28;20180;-61
2024/01/18 05:51:40;;;;;;;24.60;16.10;;;-1.20;99.90;;;;;;5031304;28;20195;-61
2024/01/18 05:54:06;;;;;;;29.13;17.00;;;-1.10;99.90;;;;;;5031288;28;20200;-60
2024/01/18 05:56:32;;;;;;;22.90;14.30;;;-1.20;99.90;;;;;;5029274;28;20425;-61
2024/01/18 05:58:58;;;;;;;26.93;16.20;;;-1.10;99.90;;;;;;5033118;28;20816;-61
2024/01/18 06:01:23;;;;;;;22.97;17.13;;;-1.10;99.90;;;;;;5027594;28;20548;-60
2024/01/18 06:03:49;;;;;;;21.73;16.10;;;-1.20;99.90;;;;;;5021769;28;20200;-61
2024/01/18 06:06:15;;;;;;;21.40;15.17;;;-1.20;99.90;;;;;;5028507;28;20646;-61
2024/01/18 06:08:40;;;;;;;23.50;16.57;;;-1.10;99.90;;;;;;5030709;28;20553;-61
2024/01/18 06:11:07;;;;;;;28.30;18.20;;;-1.20;99.90;;;;;;5031006;28;20418;-61
2024/01/18 06:13:33;;;;;;;30.27;17.47;;;-1.20;99.90;;;;;;5030919;28;20203;-61
2024/01/18 06:15:58;;;;;;;27.23;16.73;;;-1.10;99.90;;;;;;5030627;28;20418;-61
2024/01/18 06:18:24;;;;;;;30.33;17.80;;;-1.10;99.90;;;;;;5030666;28;20635;-61
2024/01/18 06:20:50;;;;;;;27.17;16.47;;;-1.10;99.90;;;;;;5030427;28;20329;-61
2024/01/18 06:23:15;;;;;;;21.30;16.73;;;-1.00;99.90;;;;;;5030946;28;20199;-61
2024/01/18 06:25:41;;;;;;;21.33;14.30;;;-1.00;99.90;;;;;;5030734;28;20650;-61
2024/01/18 06:28:07;;;;;;;24.53;17.33;;;-1.00;99.90;;;;;;5030621;28;20234;-60
2024/01/18 06:30:32;;;;;;;27.60;17.83;;;-1.20;99.90;;;;;;5030442;28;20656;-60
2024/01/18 06:32:58;;;;;;;24.93;15.90;;;-1.20;99.90;;;;;;5030781;28;20438;-61
2024/01/18 06:35:24;;;;;;;23.87;16.40;;;-1.10;99.90;;;;;;5030353;28;20179;-61
2024/01/18 06:37:49;;;;;;;25.03;17.10;;;-1.10;99.90;;;;;;5030583;28;20172;-61
2024/01/18 06:40:17;;;;;;;22.03;15.90;;;-1.10;99.90;;;;;;5030724;28;20184;-61
2024/01/18 06:42:43;;;;;;;23.00;15.27;;;-1.30;99.90;;;;;;5030378;28;20557;-61
2024/01/18 06:45:09;;;;;;;29.60;17.13;;;-1.30;99.90;;;;;;5030442;28;20457;-61
2024/01/18 06:47:35;;;;;;;26.77;17.93;;;-1.30;99.90;;;;;;5030236;28;20685;-60
2024/01/18 06:50:00;;;;;;;25.97;16.93;;;-1.20;99.90;;;;;;5030774;28;20418;-61
2024/01/18 06:52:26;;;;;;;26.40;16.70;;;-1.20;99.90;;;;;;5030400;28;21029;-60
2024/01/18 06:54:52;;;;;;;22.40;15.03;;;-1.30;99.90;;;;;;5034320;28;20250;-60
2024/01/18 06:57:18;;;;;;;27.27;15.77;;;-1.30;99.90;;;;;;5028652;28;20263;-60
2024/01/18 06:59:47;;;;;;;25.43;17.10;;;-1.40;99.90;;;;;;5036132;28;20568;-60
2024/01/18 07:02:13;;;;;;;26.50;16.73;;;-1.40;99.90;;;;;;5033882;28;20180;-59
2024/01/18 07:04:39;;;;;;;24.17;18.50;;;-1.50;99.90;;;;;;5034057;28;20422;-60
2024/01/18 07:07:04;;;;;;;32.33;16.90;;;-1.60;99.90;;;;;;5034288;28;20225;-60
2024/01/18 07:09:32;;;;;;;32.30;16.70;;;-1.70;99.90;;;;;;5037882;28;20536;-61
2024/01/18 07:11:58;;;;;;;26.87;16.30;;;-1.60;99.90;;;;;;5034030;28;20180;-61
2024/01/18 07:14:23;;;;;;;22.57;15.13;;;-1.60;99.90;;;;;;5033731;28;20510;-60
2024/01/18 07:16:49;;;;;;;25.37;15.80;;;-1.60;99.90;;;;;;5034137;28;20590;-61
2024/01/18 07:19:15;;;;;;;29.40;17.67;;;-1.60;99.90;;;;;;5039450;28;20168;-60
2024/01/18 07:21:40;;;;;;;27.10;17.80;;;-1.70;99.90;;;;;;5031377;28;20562;-58
2024/01/18 07:24:06;;;;;;;25.23;15.93;;;-1.80;99.90;;;;;;5040123;28;20195;-60
2024/01/18 07:26:32;;;;;;;25.20;16.67;;;-1.80;99.90;;;;;;5017741;28;20666;-59
2024/01/18 07:28:57;;;;;;;35.73;19.73;;;-1.80;99.90;;;;;;5032616;28;20417;-59
2024/01/18 07:31:23;;;;;;;22.10;16.47;;;-1.80;99.90;;;;;;5020743;28;20215;-60
2024/01/18 07:33:50;;;;;;;27.93;18.30;;;-1.70;99.90;;;;;;5015947;28;20610;-60
2024/01/18 07:36:17;;;;;;;25.50;16.83;;;-1.70;99.90;;;;;;5018578;28;20172;-58
2024/01/18 07:38:43;;;;;;;25.37;17.93;;;-1.70;99.90;;;;;;5023159;28;20429;-59
2024/01/18 07:41:09;;;;;;;28.13;17.33;;;-1.70;99.90;;;;;;5022422;28;20776;-60
2024/01/18 07:43:35;;;;;;;23.53;17.20;;;-1.60;99.90;;;;;;5030902;28;20434;-58
2024/01/18 07:46:00;;;;;;;24.63;16.30;;;-1.50;99.90;;;;;;5033579;28;20310;-60
2024/01/18 07:48:26;;;;;;;28.60;18.00;;;-1.50;99.90;;;;;;5034029;28;20653;-60
2024/01/18 07:50:52;;;;;;;25.23;17.23;;;-1.40;99.90;;;;;;5019855;28;20541;-60
2024/01/18 07:53:18;;;;;;;31.87;19.60;;;-1.30;99.90;;;;;;5031718;28;20594;-60
2024/01/18 07:55:44;;;;;;;40.30;20.23;;;-1.30;99.90;;;;;;5035074;28;20179;-59
2024/01/18 07:58:10;;;;;;;30.17;20.20;;;-1.30;99.90;;;;;;5032865;28;20814;-58
2024/01/18 08:00:35;;;;;;;28.30;20.10;;;-1.30;99.90;;;;;;5033001;28;20180;-60
2024/01/18 08:03:01;;;;;;;28.20;19.70;;;-1.30;99.90;;;;;;5032826;28;20441;-58
2024/01/18 08:05:28;;;;;;;31.37;20.73;;;-1.30;99.90;;;;;;5031778;28;20205;-60
2024/01/18 08:07:53;;;;;;;30.73;20.17;;;-1.20;99.90;;;;;;5033495;28;20159;-60
2024/01/18 08:10:19;;;;;;;29.87;19.00;;;-1.00;99.90;;;;;;5031569;28;20422;-61
2024/01/18 08:12:45;;;;;;;33.67;20.43;;;-0.80;99.90;;;;;;5032398;28;20831;-59
2024/01/18 08:15:12;;;;;;;29.57;18.43;;;-0.90;99.90;;;;;;5032787;28;20498;-60
2024/01/18 08:17:37;;;;;;;33.33;19.87;;;-0.80;99.90;;;;;;5025764;28;20180;-60
2024/01/18 08:20:12;;;;;;;26.00;17.60;;;-0.70;99.90;;;;;;5030526;28;20514;-59
2024/01/18 08:22:39;;;;;;;26.60;18.40;;;-0.80;99.90;;;;;;5032355;28;20195;-55
2024/01/18 08:25:06;;;;;;;28.50;17.47;;;-0.60;99.90;;;;;;5032728;28;20546;-60
2024/01/18 08:27:32;;;;;;;34.17;19.20;;;-0.50;99.90;;;;;;5030813;28;20936;-59
2024/01/18 08:29:58;;;;;;;24.80;16.80;;;-0.30;99.90;;;;;;5032033;28;20429;-54
2024/01/18 08:32:28;;;;;;;24.20;18.70;;;-0.30;99.90;;;;;;5027507;28;20188;-59
2024/01/18 08:34:54;;;;;;;27.47;17.00;;;-0.20;99.90;;;;;;5034091;28;20406;-60
2024/01/18 08:37:19;;;;;;;21.73;17.80;;;-0.30;99.90;;;;;;5032741;28;20427;-60
2024/01/18 08:39:46;;;;;;;24.17;17.07;;;-0.30;99.90;;;;;;5032296;28;20187;-60
2024/01/18 08:42:12;;;;;;;24.37;16.57;;;-0.40;99.90;;;;;;5032715;28;20479;-61
2024/01/18 08:44:38;;;;;;;25.23;18.70;;;-0.50;99.90;;;;;;5032319;28;20421;-60
2024/01/18 08:47:04;;;;;;;22.03;17.93;;;-0.50;99.90;;;;;;5032649;28;20262;-59
2024/01/18 08:49:30;;;;;;;30.97;18.97;;;-0.50;99.90;;;;;;5032193;28;20497;-60
2024/01/18 08:51:55;;;;;;;25.50;18.47;;;-0.50;99.90;;;;;;5029353;28;20597;-60
2024/01/18 08:54:21;;;;;;;24.87;17.23;;;-0.40;99.90;;;;;;5032028;28;20194;-58
2024/01/18 08:56:47;;;;;;;26.43;16.77;;;-0.40;99.90;;;;;;5032600;28;20191;-60
2024/01/18 08:59:12;;;;;;;28.23;16.83;;;-0.40;99.90;;;;;;5033043;28;20175;-60
2024/01/18 09:01:38;;;;;;;24.23;18.37;;;-0.30;99.90;;;;;;5032118;28;20180;-60
2024/01/18 09:04:04;;;;;;;23.73;16.90;;;0.20;99.90;;;;;;5031829;28;20329;-59
2024/01/18 09:06:29;;;;;;;23.47;17.70;;;0.30;99.90;;;;;;5027609;28;21259;-60
2024/01/18 09:08:55;;;;;;;28.03;18.57;;;-0.20;99.90;;;;;;5031502;28;20666;-60
2024/01/18 09:11:21;;;;;;;28.47;17.47;;;-0.20;99.90;;;;;;5027346;28;20173;-60
2024/01/18 09:13:47;;;;;;;20.07;16.40;;;0.00;99.90;;;;;;5024631;28;20222;-59
2024/01/18 09:16:18;;;;;;;25.60;17.03;;;-0.10;99.90;;;;;;5020172;28;20429;-59
2024/01/18 09:18:44;;;;;;;26.60;17.73;;;0.20;99.90;;;;;;5018200;28;20182;-61
2024/01/18 09:21:09;;;;;;;26.63;17.73;;;0.30;99.90;;;;;;5021464;28;20913;-60
2024/01/18 09:23:36;;;;;;;28.27;18.97;;;0.20;99.90;;;;;;5026143;28;20225;-59
2024/01/18 09:26:02;;;;;;;22.60;17.20;;;0.20;99.90;;;;;;5019548;28;20598;-59
2024/01/18 09:28:27;;;;;;;21.87;16.80;;;0.30;99.90;;;;;;5017939;28;20481;-60
2024/01/18 09:30:53;;;;;;;24.27;17.40;;;0.50;99.90;;;;;;5015622;28;20634;-60
2024/01/18 09:33:19;;;;;;;27.13;16.93;;;0.30;99.90;;;;;;5013542;28;20198;-59
2024/01/18 09:35:44;;;;;;;24.23;18.33;;;0.50;99.90;;;;;;5020045;28;20403;-58
2024/01/18 09:38:10;;;;;;;24.40;18.47;;;0.30;99.90;;;;;;5027133;28;20206;-59
2024/01/18 09:40:39;;;;;;;30.63;17.50;;;-0.10;99.90;;;;;;5027212;28;20205;-60
2024/01/18 09:43:07;;;;;;;29.00;17.67;;;0.10;99.90;;;;;;5027403;28;20218;-60
2024/01/18 09:45:39;;;;;;;28.63;17.43;;;-0.10;99.90;;;;;;5024583;28;20985;-60
2024/01/18 09:48:05;;;;;;;27.37;18.47;;;-0.10;99.90;;;;;;5025005;28;20510;-60
2024/01/18 09:50:32;;;;;;;28.17;19.33;;;0.00;99.90;;;;;;5028389;28;20823;-58
2024/01/18 09:52:58;;;;;;;25.33;16.80;;;-0.10;99.90;;;;;;5028667;28;20517;-60
2024/01/18 09:55:24;;;;;;;27.43;17.90;;;-0.30;99.90;;;;;;5028683;28;20565;-60
2024/01/18 09:57:55;;;;;;;24.33;18.70;;;-0.30;99.90;;;;;;5027728;28;20180;-59
2024/01/18 10:00:26;;;;;;;31.90;18.50;;;-0.20;99.90;;;;;;5027507;28;20438;-60
2024/01/18 10:02:52;;;;;;;24.73;16.67;;;-0.30;99.90;;;;;;5023774;28;21082;-59
2024/01/18 10:05:19;;;;;;;22.53;17.70;;;-0.10;99.90;;;;;;5029002;28;20454;-60
2024/01/18 10:07:44;;;;;;;28.60;18.63;;;0.00;99.90;;;;;;5027563;28;20814;-61
2024/01/18 10:10:14;;;;;;;26.53;18.27;;;-0.10;99.90;;;;;;5028291;28;20444;-58
2024/01/18 10:12:42;;;;;;;26.70;20.23;;;0.00;99.90;;;;;;5027861;28;20458;-59
2024/01/18 10:15:09;;;;;;;23.93;19.13;;;0.00;99.90;;;;;;5027485;28;20977;-58
2024/01/18 10:17:37;;;;;;;24.00;17.83;;;0.10;99.90;;;;;;5027182;28;20547;-60
2024/01/18 10:20:04;;;;;;;28.23;19.63;;;0.20;99.90;;;;;;5026847;28;20430;-56
2024/01/18 10:22:29;;;;;;;30.80;20.87;;;0.00;99.90;;;;;;5027784;28;20430;-59
2024/01/18 10:24:55;;;;;;;28.07;18.90;;;-0.10;99.90;;;;;;5030669;28;20419;-63
2024/01/18 10:27:25;;;;;;;33.77;20.53;;;0.20;99.90;;;;;;5031058;28;20259;-60
2024/01/18 10:29:51;;;;;;;24.63;19.13;;;0.10;99.90;;;;;;5032499;28;20439;-58
2024/01/18 10:32:17;;;;;;;30.73;20.73;;;0.00;99.90;;;;;;5043421;28;20948;-64
2024/01/18 10:34:43;;;;;;;29.57;19.10;;;-0.10;99.90;;;;;;5033418;28;20487;-57
2024/01/18 10:37:15;;;;;;;30.37;22.07;;;-0.20;99.90;;;;;;5040084;28;20271;-58
2024/01/18 10:39:42;;;;;;;33.00;20.80;;;-0.30;99.90;;;;;;5032740;28;20168;-57
2024/01/18 10:42:17;;;;;;;30.00;17.83;;;0.00;99.90;;;;;;5036101;28;20469;-58
2024/01/18 10:45:08;;;;;;;31.77;18.53;;;0.30;99.90;;;;;;5034628;28;20405;-56
2024/01/18 10:48:01;;;;;;;25.70;17.93;;;0.40;99.90;;;;;;5034997;28;20434;-55
2024/01/18 10:50:40;;;;;;;25.63;19.57;;;0.20;99.90;;;;;;5035202;28;20927;-59
2024/01/18 10:53:15;;;;;;;26.80;18.67;;;0.10;99.90;;;;;;5032893;28;20434;-58
2024/01/18 10:56:08;;;;;;;31.60;18.73;;;0.20;99.90;;;;;;5032317;28;20409;-59
2024/01/18 10:58:40;;;;;;;23.30;19.17;;;0.50;99.90;;;;;;5042430;28;20772;-59
2024/01/18 11:01:08;;;;;;;23.17;16.30;;;0.70;99.90;;;;;;5033314;28;20900;-57
2024/01/18 11:03:55;;;;;;;31.23;18.70;;;0.70;99.90;;;;;;5034336;28;20430;-59
2024/01/18 11:06:41;;;;;;;24.00;18.00;;;0.40;99.90;;;;;;5028949;28;20493;-58
2024/01/18 11:09:15;;;;;;;26.37;17.47;;;0.70;99.90;;;;;;5025576;28;20426;-60
2024/01/18 11:11:50;;;;;;;25.23;18.13;;;0.90;99.90;;;;;;5034087;28;20412;-60
2024/01/18 11:14:33;;;;;;;29.43;17.93;;;0.50;99.90;;;;;;5034330;28;20481;-62
2024/01/18 11:17:12;;;;;;;24.53;19.47;;;0.30;99.90;;;;;;5037447;28;20417;-64
2024/01/18 11:19:42;;;;;;;25.33;19.53;;;0.30;99.90;;;;;;5037589;28;20434;-63
2024/01/18 11:22:23;;;;;;;26.90;18.13;;;0.30;99.90;;;;;;5033140;28;20839;-63
2024/01/18 11:24:49;;;;;;;32.90;19.20;;;0.40;99.90;;;;;;5038533;28;20414;-66
2024/01/18 11:38:32;;;;;;;31.20;20.13;;;0.40;99.90;;;;;;5061796;28;20549;-57
2024/01/18 11:40:58;;;;;;;27.83;18.33;;;0.30;99.90;;;;;;5045358;28;20841;-59
2024/01/18 11:43:55;;;;;;;26.17;18.97;;;0.40;99.90;;;;;;5034820;28;20966;-59
2024/01/18 11:46:41;;;;;;;29.80;19.10;;;0.30;99.90;;;;;;5023531;28;20431;-56
2024/01/18 11:49:08;;;;;;;31.53;18.00;;;0.40;99.90;;;;;;5028407;28;20848;-60
2024/01/18 11:51:35;;;;;;;28.97;21.60;;;0.50;99.90;;;;;;5031155;28;20445;-60
2024/01/18 11:54:01;;;;;;;22.30;17.43;;;0.60;99.90;;;;;;5027906;28;20458;-62
2024/01/18 11:56:28;;;;;;;28.87;17.93;;;0.30;99.90;;;;;;5028484;28;20472;-63
2024/01/18 11:58:57;;;;;;;29.23;18.63;;;0.20;99.90;;;;;;5032261;28;20468;-62
2024/01/18 12:01:25;;;;;;;23.53;18.53;;;0.00;99.90;;;;;;5028072;28;20918;-60
2024/01/18 12:03:55;;;;;;;28.83;19.37;;;0.10;99.90;;;;;;5029082;28;20446;-65
2024/01/18 12:06:26;;;;;;;25.60;17.83;;;0.00;99.90;;;;;;5027184;28;20430;-64
2024/01/18 12:08:56;;;;;;;31.57;21.00;;;0.10;99.90;;;;;;5027202;28;20442;-59
2024/01/18 12:11:22;;;;;;;25.10;19.87;;;0.20;99.90;;;;;;5023347;28;20427;-62
2024/01/18 12:13:47;;;;;;;27.13;19.43;;;0.30;99.90;;;;;;5030683;28;20442;-56
2024/01/18 12:16:13;;;;;;;28.00;19.10;;;0.00;99.90;;;;;;5030249;28;20207;-60
2024/01/18 12:18:45;;;;;;;29.80;20.80;;;-0.10;99.90;;;;;;5023803;28;20578;-65
2024/01/18 12:21:11;;;;;;;28.40;18.83;;;-0.10;99.90;;;;;;5021915;28;20256;-61
2024/01/18 12:23:37;;;;;;;27.20;18.73;;;0.00;99.90;;;;;;5023820;28;20800;-60
2024/01/18 12:26:05;;;;;;;28.90;18.50;;;0.10;99.90;;;;;;5028286;28;20191;-65
2024/01/18 12:28:31;;;;;;;27.77;18.40;;;0.20;99.90;;;;;;5030503;28;20476;-62
2024/01/18 12:31:03;;;;;;;26.23;18.77;;;0.10;99.90;;;;;;5033096;28;20410;-62
2024/01/18 12:33:35;;;;;;;28.53;17.53;;;0.10;99.90;;;;;;5027195;28;20242;-60
2024/01/18 12:36:03;;;;;;;29.40;20.13;;;0.10;99.90;;;;;;5021280;28;20504;-61
2024/01/18 12:38:29;;;;;;;28.20;20.80;;;0.10;99.90;;;;;;5030113;28;20476;-61